sensor_id;sensor_type;location;lat;lon;timestamp;pressure;altitude;pressure_sealevel;temperature;humidity
23303;BME280;11820;48.738;9.092;2023-05-24T00:01:46;96592.16;;;13.95;100.00
23303;BME280;11820;48.738;9.092;2023-05-24T00:04:12;96589.72;;;14.00;100.00
23303;BME280;11820;48.738;9.092;2023-05-24T00:06:39;96585.34;;;14.00;100.00
23303;BME280;11820;48.738;9.092;2023-05-24T00:09:05;96590.22;;;13.77;100.00
23303;BME280;11820;48.738;9.092;2023-05-24T00:11:31;96587.97;;;13.87;100.00
23303;BME280;11820;48.738;9.092;2023-05-24T00:13:56;96589.41;;;13.83;100.00
23303;BME280;11820;48.738;9.092;2023-05-24T00:16:21;96585.13;;;14.02;100.00
23303;BME280;11820;48.738;9.092;2023-05-24T00:18:47;96578.16;;;13.89;100.00
23303;BME280;11820;48.738;9.092;2023-05-24T00:21:13;96580.16;;;13.94;100.00
23303;BME280;11820;48.738;9.092;2023-05-24T00:23:39;96571.59;;;13.87;100.00
23303;BME280;11820;48.738;9.092;2023-05-24T00:26:06;96573.34;;;13.99;100.00
23303;BME280;11820;48.738;9.092;2023-05-24T00:28:32;96573.97;;;13.95;100.00
23303;BME280;11820;48.738;9.092;2023-05-24T00:30:58;96574.72;;;14.02;100.00
23303;BME280;11820;48.738;9.092;2023-05-24T00:33:24;96576.88;;;14.11;100.00
23303;BME280;11820;48.738;9.092;2023-05-24T00:35:49;96567.72;;;14.02;100.00
23303;BME280;11820;48.738;9.092;2023-05-24T00:38:24;96566.66;;;13.72;100.00
23303;BME280;11820;48.738;9.092;2023-05-24T00:40:50;96565.78;;;13.91;100.00
23303;BME280;11820;48.738;9.092;2023-05-24T00:43:15;96571.25;;;13.70;100.00
23303;BME280;11820;48.738;9.092;2023-05-24T00:45:41;96560.34;;;13.99;100.00
23303;BME280;11820;48.738;9.092;2023-05-24T00:48:08;96562.50;;;14.15;100.00
23303;BME280;11820;48.738;9.092;2023-05-24T00:50:34;96564.53;;;14.07;100.00
23303;BME280;11820;48.738;9.092;2023-05-24T00:53:02;96565.63;;;14.30;100.00
23303;BME280;11820;48.738;9.092;2023-05-24T00:55:29;96566.97;;;13.95;100.00
23303;BME280;11820;48.738;9.092;2023-05-24T00:57:56;96570.91;;;14.17;100.00
23303;BME280;11820;48.738;9.092;2023-05-24T01:00:22;96569.72;;;14.07;100.00
23303;BME280;11820;48.738;9.092;2023-05-24T01:02:48;96564.69;;;14.18;100.00
23303;BME280;11820;48.738;9.092;2023-05-24T01:05:15;96575.09;;;14.18;100.00
23303;BME280;11820;48.738;9.092;2023-05-24T01:16:04;96565.72;;;14.17;100.00
23303;BME280;11820;48.738;9.092;2023-05-24T01:18:34;96563.59;;;13.88;100.00
23303;BME280;11820;48.738;9.092;2023-05-24T01:21:30;96565.13;;;14.02;100.00
23303;BME280;11820;48.738;9.092;2023-05-24T01:29:31;96564.63;;;13.81;100.00
23303;BME280;11820;48.738;9.092;2023-05-24T01:31:57;96551.00;;;13.85;100.00
23303;BME280;11820;48.738;9.092;2023-05-24T01:34:26;96560.88;;;13.70;100.00
23303;BME280;11820;48.738;9.092;2023-05-24T01:36:52;96561.28;;;13.61;100.00
23303;BME280;11820;48.738;9.092;2023-05-24T01:39:19;96560.34;;;13.42;100.00
23303;BME280;11820;48.738;9.092;2023-05-24T01:45:39;96560.66;;;13.72;100.00
23303;BME280;11820;48.738;9.092;2023-05-24T01:47:55;96561.38;;;13.92;100.00
23303;BME280;11820;48.738;9.092;2023-05-24T01:50:45;96562.47;;;13.65;100.00
23303;BME280;11820;48.738;9.092;2023-05-24T01:53:17;96565.84;;;13.78;100.00
23303;BME280;11820;48.738;9.092;2023-05-24T01:55:47;96566.09;;;13.64;100.00
23303;BME280;11820;48.738;9.092;2023-05-24T01:58:15;96566.31;;;13.49;100.00
23303;BME280;11820;48.738;9.092;2023-05-24T02:00:44;96565.63;;;13.80;100.00
23303;BME280;11820;48.738;9.092;2023-05-24T02:03:10;96568.06;;;13.68;100.00
23303;BME280;11820;48.738;9.092;2023-05-24T02:05:37;96566.31;;;13.43;100.00
23303;BME280;11820;48.738;9.092;2023-05-24T02:08:03;96558.34;;;13.44;100.00
23303;BME280;11820;48.738;9.092;2023-05-24T02:10:28;96564.31;;;13.38;100.00
23303;BME280;11820;48.738;9.092;2023-05-24T02:12:53;96565.31;;;13.50;100.00
23303;BME280;11820;48.738;9.092;2023-05-24T02:15:19;96569.75;;;13.30;100.00
23303;BME280;11820;48.738;9.092;2023-05-24T02:17:44;96557.69;;;13.55;100.00
23303;BME280;11820;48.738;9.092;2023-05-24T02:20:10;96564.56;;;13.37;100.00
23303;BME280;11820;48.738;9.092;2023-05-24T02:22:37;96569.91;;;13.48;100.00
23303;BME280;11820;48.738;9.092;2023-05-24T02:25:02;96573.34;;;13.29;100.00
23303;BME280;11820;48.738;9.092;2023-05-24T02:27:28;96572.97;;;13.19;100.00
23303;BME280;11820;48.738;9.092;2023-05-24T02:29:53;96571.78;;;13.15;100.00
23303;BME280;11820;48.738;9.092;2023-05-24T02:32:19;96577.34;;;13.19;100.00
23303;BME280;11820;48.738;9.092;2023-05-24T02:34:44;96571.16;;;13.26;100.00
23303;BME280;11820;48.738;9.092;2023-05-24T02:37:10;96573.75;;;13.20;100.00
23303;BME280;11820;48.738;9.092;2023-05-24T02:39:38;96575.13;;;13.35;100.00
23303;BME280;11820;48.738;9.092;2023-05-24T02:42:04;96571.56;;;13.30;100.00
23303;BME280;11820;48.738;9.092;2023-05-24T02:44:29;96578.34;;;13.24;100.00
23303;BME280;11820;48.738;9.092;2023-05-24T02:46:55;96565.16;;;13.26;100.00
23303;BME280;11820;48.738;9.092;2023-05-24T02:49:20;96569.97;;;13.09;100.00
23303;BME280;11820;48.738;9.092;2023-05-24T02:51:45;96569.59;;;13.06;100.00
23303;BME280;11820;48.738;9.092;2023-05-24T02:54:11;96573.78;;;12.94;100.00
23303;BME280;11820;48.738;9.092;2023-05-24T02:56:36;96578.16;;;13.06;100.00
23303;BME280;11820;48.738;9.092;2023-05-24T02:59:03;96576.34;;;13.13;100.00
23303;BME280;11820;48.738;9.092;2023-05-24T03:01:29;96565.59;;;13.10;100.00
23303;BME280;11820;48.738;9.092;2023-05-24T03:03:54;96555.59;;;12.94;100.00
23303;BME280;11820;48.738;9.092;2023-05-24T03:06:20;96554.38;;;12.84;100.00
23303;BME280;11820;48.738;9.092;2023-05-24T03:08:45;96558.78;;;12.77;100.00
23303;BME280;11820;48.738;9.092;2023-05-24T03:11:11;96560.75;;;12.88;100.00
23303;BME280;11820;48.738;9.092;2023-05-24T03:13:36;96555.78;;;12.67;100.00
23303;BME280;11820;48.738;9.092;2023-05-24T03:16:02;96564.75;;;12.71;100.00
23303;BME280;11820;48.738;9.092;2023-05-24T03:18:27;96569.16;;;12.90;100.00
23303;BME280;11820;48.738;9.092;2023-05-24T03:20:52;96571.56;;;12.72;100.00
23303;BME280;11820;48.738;9.092;2023-05-24T03:23:18;96562.19;;;12.97;100.00
23303;BME280;11820;48.738;9.092;2023-05-24T03:25:43;96567.19;;;12.92;100.00
23303;BME280;11820;48.738;9.092;2023-05-24T03:28:08;96561.56;;;12.82;100.00
23303;BME280;11820;48.738;9.092;2023-05-24T03:30:34;96566.75;;;12.69;100.00
23303;BME280;11820;48.738;9.092;2023-05-24T03:32:59;96561.97;;;12.79;100.00
23303;BME280;11820;48.738;9.092;2023-05-24T03:35:25;96563.38;;;12.81;100.00
23303;BME280;11820;48.738;9.092;2023-05-24T03:37:51;96565.56;;;12.71;100.00
23303;BME280;11820;48.738;9.092;2023-05-24T03:40:17;96571.75;;;12.57;100.00
23303;BME280;11820;48.738;9.092;2023-05-24T03:42:42;96568.53;;;12.68;100.00
23303;BME280;11820;48.738;9.092;2023-05-24T03:45:08;96563.94;;;12.70;100.00
23303;BME280;11820;48.738;9.092;2023-05-24T03:47:33;96577.72;;;12.58;100.00
23303;BME280;11820;48.738;9.092;2023-05-24T03:49:59;96572.34;;;12.59;100.00
23303;BME280;11820;48.738;9.092;2023-05-24T03:52:24;96581.31;;;12.57;100.00
23303;BME280;11820;48.738;9.092;2023-05-24T03:54:49;96571.72;;;12.51;100.00
23303;BME280;11820;48.738;9.092;2023-05-24T03:57:15;96571.13;;;12.55;100.00
23303;BME280;11820;48.738;9.092;2023-05-24T03:59:41;96576.50;;;12.54;100.00
23303;BME280;11820;48.738;9.092;2023-05-24T04:02:07;96570.72;;;12.52;100.00
23303;BME280;11820;48.738;9.092;2023-05-24T04:04:32;96570.94;;;12.63;100.00
23303;BME280;11820;48.738;9.092;2023-05-24T04:06:59;96558.38;;;12.67;100.00
23303;BME280;11820;48.738;9.092;2023-05-24T04:09:24;96563.53;;;12.41;100.00
23303;BME280;11820;48.738;9.092;2023-05-24T04:11:50;96561.53;;;12.49;100.00
23303;BME280;11820;48.738;9.092;2023-05-24T04:14:15;96561.94;;;12.53;100.00
23303;BME280;11820;48.738;9.092;2023-05-24T04:16:40;96556.75;;;12.72;100.00
23303;BME280;11820;48.738;9.092;2023-05-24T04:19:09;96559.94;;;12.55;100.00
23303;BME280;11820;48.738;9.092;2023-05-24T04:21:35;96555.56;;;12.62;100.00
23303;BME280;11820;48.738;9.092;2023-05-24T04:24:01;96558.34;;;12.73;100.00
23303;BME280;11820;48.738;9.092;2023-05-24T04:26:27;96552.38;;;12.66;100.00
23303;BME280;11820;48.738;9.092;2023-05-24T04:28:53;96557.97;;;12.63;100.00
23303;BME280;11820;48.738;9.092;2023-05-24T04:31:20;96559.94;;;12.55;100.00
23303;BME280;11820;48.738;9.092;2023-05-24T04:33:45;96557.56;;;12.60;100.00
23303;BME280;11820;48.738;9.092;2023-05-24T04:36:12;96564.13;;;12.56;100.00
23303;BME280;11820;48.738;9.092;2023-05-24T04:38:38;96565.34;;;12.53;100.00
23303;BME280;11820;48.738;9.092;2023-05-24T04:41:05;96571.53;;;12.52;100.00
23303;BME280;11820;48.738;9.092;2023-05-24T04:43:31;96565.53;;;12.45;100.00
23303;BME280;11820;48.738;9.092;2023-05-24T04:45:57;96570.31;;;12.48;100.00
23303;BME280;11820;48.738;9.092;2023-05-24T04:48:23;96575.31;;;12.50;100.00
23303;BME280;11820;48.738;9.092;2023-05-24T04:50:53;96578.09;;;12.55;100.00
23303;BME280;11820;48.738;9.092;2023-05-24T04:53:20;96582.31;;;12.75;100.00
23303;BME280;11820;48.738;9.092;2023-05-24T04:55:46;96586.28;;;12.52;100.00
23303;BME280;11820;48.738;9.092;2023-05-24T04:58:12;96585.81;;;12.22;100.00
23303;BME280;11820;48.738;9.092;2023-05-24T05:00:38;96588.69;;;12.47;100.00
23303;BME280;11820;48.738;9.092;2023-05-24T05:03:03;96590.84;;;12.37;100.00
23303;BME280;11820;48.738;9.092;2023-05-24T05:05:28;96591.84;;;12.36;100.00
23303;BME280;11820;48.738;9.092;2023-05-24T05:07:54;96591.84;;;12.42;100.00
23303;BME280;11820;48.738;9.092;2023-05-24T05:10:19;96591.31;;;12.73;100.00
23303;BME280;11820;48.738;9.092;2023-05-24T05:12:44;96594.31;;;12.83;100.00
23303;BME280;11820;48.738;9.092;2023-05-24T05:15:10;96598.91;;;12.81;100.00
23303;BME280;11820;48.738;9.092;2023-05-24T05:17:35;96595.09;;;12.57;100.00
23303;BME280;11820;48.738;9.092;2023-05-24T05:20:01;96594.44;;;12.42;100.00
23303;BME280;11820;48.738;9.092;2023-05-24T05:22:27;96593.06;;;12.40;100.00
23303;BME280;11820;48.738;9.092;2023-05-24T05:24:52;96597.25;;;12.54;100.00
23303;BME280;11820;48.738;9.092;2023-05-24T05:27:17;96595.66;;;12.53;100.00
23303;BME280;11820;48.738;9.092;2023-05-24T05:29:43;96599.28;;;12.65;100.00
23303;BME280;11820;48.738;9.092;2023-05-24T05:32:08;96598.28;;;12.72;100.00
23303;BME280;11820;48.738;9.092;2023-05-24T05:34:33;96596.31;;;12.81;100.00
23303;BME280;11820;48.738;9.092;2023-05-24T05:36:59;96595.91;;;12.71;100.00
23303;BME280;11820;48.738;9.092;2023-05-24T05:39:24;96590.88;;;12.50;100.00
23303;BME280;11820;48.738;9.092;2023-05-24T05:41:50;96602.06;;;12.63;100.00
23303;BME280;11820;48.738;9.092;2023-05-24T05:44:15;96596.25;;;12.42;100.00
23303;BME280;11820;48.738;9.092;2023-05-24T05:46:40;96595.28;;;12.56;100.00
23303;BME280;11820;48.738;9.092;2023-05-24T05:49:08;96600.28;;;12.70;100.00
23303;BME280;11820;48.738;9.092;2023-05-24T05:51:33;96586.34;;;12.84;100.00
23303;BME280;11820;48.738;9.092;2023-05-24T05:53:59;96595.47;;;12.61;100.00
23303;BME280;11820;48.738;9.092;2023-05-24T05:56:24;96587.91;;;12.59;100.00
23303;BME280;11820;48.738;9.092;2023-05-24T05:58:51;96593.09;;;12.72;100.00
23303;BME280;11820;48.738;9.092;2023-05-24T06:01:16;96587.16;;;12.98;100.00
23303;BME280;11820;48.738;9.092;2023-05-24T06:03:41;96592.72;;;12.88;100.00
23303;BME280;11820;48.738;9.092;2023-05-24T06:06:07;96594.75;;;12.93;100.00
23303;BME280;11820;48.738;9.092;2023-05-24T06:08:32;96587.91;;;12.79;100.00
23303;BME280;11820;48.738;9.092;2023-05-24T06:11:00;96588.56;;;12.94;100.00
23303;BME280;11820;48.738;9.092;2023-05-24T06:13:25;96586.53;;;13.08;100.00
23303;BME280;11820;48.738;9.092;2023-05-24T06:15:52;96581.53;;;13.20;100.00
23303;BME280;11820;48.738;9.092;2023-05-24T06:18:18;96584.13;;;13.13;100.00
23303;BME280;11820;48.738;9.092;2023-05-24T06:20:43;96584.75;;;13.22;100.00
23303;BME280;11820;48.738;9.092;2023-05-24T06:23:09;96586.34;;;13.29;100.00
23303;BME280;11820;48.738;9.092;2023-05-24T06:25:34;96579.56;;;13.15;100.00
23303;BME280;11820;48.738;9.092;2023-05-24T06:27:59;96583.53;;;13.11;100.00
23303;BME280;11820;48.738;9.092;2023-05-24T06:30:25;96591.94;;;13.13;100.00
23303;BME280;11820;48.738;9.092;2023-05-24T06:32:50;96590.94;;;13.27;100.00
23303;BME280;11820;48.738;9.092;2023-05-24T06:35:16;96585.56;;;13.22;100.00
23303;BME280;11820;48.738;9.092;2023-05-24T06:37:47;96589.72;;;13.43;100.00
23303;BME280;11820;48.738;9.092;2023-05-24T06:40:12;96592.34;;;13.10;100.00
23303;BME280;11820;48.738;9.092;2023-05-24T06:42:38;96594.34;;;13.28;100.00
23303;BME280;11820;48.738;9.092;2023-05-24T06:45:04;96598.50;;;13.35;100.00
23303;BME280;11820;48.738;9.092;2023-05-24T06:47:30;96598.72;;;13.40;100.00
23303;BME280;11820;48.738;9.092;2023-05-24T06:49:55;96598.13;;;13.25;100.00
23303;BME280;11820;48.738;9.092;2023-05-24T06:52:21;96596.72;;;13.42;100.00
23303;BME280;11820;48.738;9.092;2023-05-24T06:54:47;96599.91;;;13.38;100.00
23303;BME280;11820;48.738;9.092;2023-05-24T06:57:13;96602.53;;;13.18;100.00
23303;BME280;11820;48.738;9.092;2023-05-24T06:59:38;96608.72;;;13.11;100.00
23303;BME280;11820;48.738;9.092;2023-05-24T07:02:03;96606.31;;;13.22;100.00
23303;BME280;11820;48.738;9.092;2023-05-24T07:04:29;96612.50;;;13.34;100.00
23303;BME280;11820;48.738;9.092;2023-05-24T07:06:54;96610.69;;;13.54;100.00
23303;BME280;11820;48.738;9.092;2023-05-24T07:09:19;96615.09;;;13.34;100.00
23303;BME280;11820;48.738;9.092;2023-05-24T07:11:45;96617.91;;;13.07;100.00
23303;BME280;11820;48.738;9.092;2023-05-24T07:14:10;96615.91;;;13.09;100.00
23303;BME280;11820;48.738;9.092;2023-05-24T07:16:36;96629.91;;;13.08;100.00
23303;BME280;11820;48.738;9.092;2023-05-24T07:19:01;96634.47;;;13.12;100.00
23303;BME280;11820;48.738;9.092;2023-05-24T07:21:27;96639.91;;;13.17;100.00
23303;BME280;11820;48.738;9.092;2023-05-24T07:23:52;96638.09;;;13.05;100.00
23303;BME280;11820;48.738;9.092;2023-05-24T07:26:18;96642.91;;;13.14;100.00
23303;BME280;11820;48.738;9.092;2023-05-24T07:28:43;96645.06;;;13.04;100.00
23303;BME280;11820;48.738;9.092;2023-05-24T07:31:08;96643.88;;;13.20;100.00
23303;BME280;11820;48.738;9.092;2023-05-24T07:33:37;96643.47;;;13.23;100.00
23303;BME280;11820;48.738;9.092;2023-05-24T07:36:04;96642.69;;;13.22;100.00
23303;BME280;11820;48.738;9.092;2023-05-24T07:38:30;96657.00;;;12.86;100.00
23303;BME280;11820;48.738;9.092;2023-05-24T07:40:58;96654.25;;;13.00;100.00
23303;BME280;11820;48.738;9.092;2023-05-24T07:43:24;96660.44;;;12.99;100.00
23303;BME280;11820;48.738;9.092;2023-05-24T07:45:51;96661.44;;;13.11;100.00
23303;BME280;11820;48.738;9.092;2023-05-24T07:48:16;96656.66;;;12.96;100.00
23303;BME280;11820;48.738;9.092;2023-05-24T07:50:41;96660.38;;;12.74;100.00
23303;BME280;11820;48.738;9.092;2023-05-24T07:53:12;96660.25;;;13.07;100.00
23303;BME280;11820;48.738;9.092;2023-05-24T07:55:37;96662.84;;;13.07;100.00
23303;BME280;11820;48.738;9.092;2023-05-24T07:58:03;96658.66;;;12.94;100.00
23303;BME280;11820;48.738;9.092;2023-05-24T08:00:28;96656.41;;;12.91;100.00
23303;BME280;11820;48.738;9.092;2023-05-24T08:02:54;96657.88;;;13.06;100.00
23303;BME280;11820;48.738;9.092;2023-05-24T08:05:19;96659.84;;;13.36;100.00
23303;BME280;11820;48.738;9.092;2023-05-24T08:07:44;96657.44;;;13.48;100.00
23303;BME280;11820;48.738;9.092;2023-05-24T08:10:10;96654.97;;;13.85;100.00
23303;BME280;11820;48.738;9.092;2023-05-24T08:12:38;96662.78;;;13.85;100.00
23303;BME280;11820;48.738;9.092;2023-05-24T08:15:04;96664.59;;;13.78;100.00
23303;BME280;11820;48.738;9.092;2023-05-24T08:17:30;96663.97;;;13.89;100.00
23303;BME280;11820;48.738;9.092;2023-05-24T08:19:55;96668.25;;;13.51;100.00
23303;BME280;11820;48.738;9.092;2023-05-24T08:22:21;96668.22;;;13.38;100.00
23303;BME280;11820;48.738;9.092;2023-05-24T08:24:46;96675.84;;;13.20;100.00
23303;BME280;11820;48.738;9.092;2023-05-24T08:27:11;96679.63;;;13.18;100.00
23303;BME280;11820;48.738;9.092;2023-05-24T08:29:38;96676.44;;;13.16;100.00
23303;BME280;11820;48.738;9.092;2023-05-24T08:32:03;96685.44;;;13.52;100.00
23303;BME280;11820;48.738;9.092;2023-05-24T08:34:36;96683.81;;;13.19;100.00
23303;BME280;11820;48.738;9.092;2023-05-24T08:37:02;96687.03;;;13.27;100.00
23303;BME280;11820;48.738;9.092;2023-05-24T08:39:27;96689.22;;;13.50;100.00
23303;BME280;11820;48.738;9.092;2023-05-24T08:41:54;96695.63;;;13.28;100.00
23303;BME280;11820;48.738;9.092;2023-05-24T08:44:20;96692.63;;;13.18;100.00
23303;BME280;11820;48.738;9.092;2023-05-24T08:46:47;96689.44;;;13.22;100.00
23303;BME280;11820;48.738;9.092;2023-05-24T08:49:13;96688.63;;;13.28;100.00
23303;BME280;11820;48.738;9.092;2023-05-24T08:51:39;96689.00;;;13.64;100.00
23303;BME280;11820;48.738;9.092;2023-05-24T08:54:05;96680.63;;;13.36;100.00
23303;BME280;11820;48.738;9.092;2023-05-24T08:56:32;96681.03;;;13.72;100.00
23303;BME280;11820;48.738;9.092;2023-05-24T08:58:58;96686.66;;;13.43;100.00
23303;BME280;11820;48.738;9.092;2023-05-24T09:01:24;96687.03;;;13.66;100.00
23303;BME280;11820;48.738;9.092;2023-05-24T09:03:50;96685.19;;;13.86;100.00
23303;BME280;11820;48.738;9.092;2023-05-24T09:06:17;96689.22;;;13.69;100.00
23303;BME280;11820;48.738;9.092;2023-05-24T09:08:43;96687.00;;;13.92;100.00
23303;BME280;11820;48.738;9.092;2023-05-24T09:11:09;96683.16;;;14.01;100.00
23303;BME280;11820;48.738;9.092;2023-05-24T09:13:35;96676.53;;;14.05;100.00
23303;BME280;11820;48.738;9.092;2023-05-24T09:16:02;96679.50;;;14.22;100.00
23303;BME280;11820;48.738;9.092;2023-05-24T09:18:28;96681.16;;;13.90;100.00
23303;BME280;11820;48.738;9.092;2023-05-24T09:20:53;96676.53;;;14.05;100.00
23303;BME280;11820;48.738;9.092;2023-05-24T09:23:19;96672.53;;;14.16;100.00
23303;BME280;11820;48.738;9.092;2023-05-24T09:25:45;96677.38;;;13.93;100.00
23303;BME280;11820;48.738;9.092;2023-05-24T09:28:15;96670.56;;;14.05;100.00
23303;BME280;11820;48.738;9.092;2023-05-24T09:30:45;96672.56;;;13.96;100.00
23303;BME280;11820;48.738;9.092;2023-05-24T09:33:21;96675.53;;;14.06;100.00
23303;BME280;11820;48.738;9.092;2023-05-24T09:35:47;96681.16;;;13.97;100.00
23303;BME280;11820;48.738;9.092;2023-05-24T09:38:17;96690.97;;;13.88;100.00
23303;BME280;11820;48.738;9.092;2023-05-24T09:40:43;96691.59;;;13.77;100.00
23303;BME280;11820;48.738;9.092;2023-05-24T09:43:09;96683.00;;;13.77;100.00
23303;BME280;11820;48.738;9.092;2023-05-24T09:45:43;96689.00;;;13.64;100.00
23303;BME280;11820;48.738;9.092;2023-05-24T09:48:11;96691.41;;;13.72;100.00
23303;BME280;11820;48.738;9.092;2023-05-24T09:50:37;96694.19;;;13.77;100.00
23303;BME280;11820;48.738;9.092;2023-05-24T09:53:02;96694.41;;;13.69;100.00
23303;BME280;11820;48.738;9.092;2023-05-24T09:55:28;96703.84;;;13.44;100.00
23303;BME280;11820;48.738;9.092;2023-05-24T09:58:06;96700.22;;;13.52;100.00
23303;BME280;11820;48.738;9.092;2023-05-24T10:00:38;96697.22;;;13.68;100.00
23303;BME280;11820;48.738;9.092;2023-05-24T10:03:06;96696.81;;;13.84;100.00
23303;BME280;11820;48.738;9.092;2023-05-24T10:05:33;96691.00;;;13.69;100.00
23303;BME280;11820;48.738;9.092;2023-05-24T10:07:59;96683.03;;;13.44;100.00
23303;BME280;11820;48.738;9.092;2023-05-24T10:10:27;96689.84;;;13.45;100.00
23303;BME280;11820;48.738;9.092;2023-05-24T10:12:54;96690.63;;;13.52;100.00
23303;BME280;11820;48.738;9.092;2023-05-24T10:15:20;96686.63;;;13.56;100.00
23303;BME280;11820;48.738;9.092;2023-05-24T10:17:45;96684.25;;;13.55;100.00
23303;BME280;11820;48.738;9.092;2023-05-24T10:20:11;96689.44;;;13.55;100.00
23303;BME280;11820;48.738;9.092;2023-05-24T10:22:40;96691.84;;;13.43;100.00
23303;BME280;11820;48.738;9.092;2023-05-24T10:25:09;96687.44;;;13.57;100.00
23303;BME280;11820;48.738;9.092;2023-05-24T10:27:40;96686.03;;;13.54;100.00
23303;BME280;11820;48.738;9.092;2023-05-24T10:32:54;96701.03;;;13.33;100.00
23303;BME280;11820;48.738;9.092;2023-05-24T10:35:21;96698.22;;;13.34;100.00
23303;BME280;11820;48.738;9.092;2023-05-24T10:37:48;96696.22;;;13.17;100.00
23303;BME280;11820;48.738;9.092;2023-05-24T10:40:18;96696.03;;;13.18;100.00
23303;BME280;11820;48.738;9.092;2023-05-24T10:42:45;96698.03;;;13.16;100.00
23303;BME280;11820;48.738;9.092;2023-05-24T10:48:30;96686.19;;;13.01;100.00
23303;BME280;11820;48.738;9.092;2023-05-24T10:51:00;96689.03;;;13.38;100.00
23303;BME280;11820;48.738;9.092;2023-05-24T10:53:26;96683.03;;;13.51;100.00
23303;BME280;11820;48.738;9.092;2023-05-24T10:56:01;96683.44;;;13.54;100.00
23303;BME280;11820;48.738;9.092;2023-05-24T11:01:02;96678.25;;;13.09;100.00
23303;BME280;11820;48.738;9.092;2023-05-24T11:03:33;96681.03;;;13.20;100.00
23303;BME280;11820;48.738;9.092;2023-05-24T11:05:59;96681.63;;;13.22;100.00
23303;BME280;11820;48.738;9.092;2023-05-24T11:08:30;96689.81;;;13.26;100.00
23303;BME280;11820;48.738;9.092;2023-05-24T11:11:07;96685.41;;;13.39;100.00
23303;BME280;11820;48.738;9.092;2023-05-24T11:13:37;96682.22;;;13.18;100.00
23303;BME280;11820;48.738;9.092;2023-05-24T11:16:03;96674.06;;;13.34;100.00
23303;BME280;11820;48.738;9.092;2023-05-24T11:18:29;96671.81;;;13.70;100.00
23303;BME280;11820;48.738;9.092;2023-05-24T11:20:56;96671.41;;;13.73;100.00
23303;BME280;11820;48.738;9.092;2023-05-24T11:23:24;96666.38;;;13.97;100.00
23303;BME280;11820;48.738;9.092;2023-05-24T11:25:49;96668.53;;;14.07;100.00
23303;BME280;11820;48.738;9.092;2023-05-24T11:28:15;96663.19;;;13.95;100.00
23303;BME280;11820;48.738;9.092;2023-05-24T11:30:42;96667.75;;;14.19;100.00
23303;BME280;11820;48.738;9.092;2023-05-24T11:33:14;96665.47;;;14.29;100.00
23303;BME280;11820;48.738;9.092;2023-05-24T11:35:40;96658.69;;;14.28;100.00
23303;BME280;11820;48.738;9.092;2023-05-24T11:38:10;96662.06;;;14.35;100.00
23303;BME280;11820;48.738;9.092;2023-05-24T11:40:41;96659.97;;;14.57;100.00
23303;BME280;11820;48.738;9.092;2023-05-24T11:43:15;96663.66;;;14.36;100.00
23303;BME280;11820;48.738;9.092;2023-05-24T11:45:42;96656.50;;;15.00;100.00
23303;BME280;11820;48.738;9.092;2023-05-24T11:48:11;96656.13;;;14.96;100.00
23303;BME280;11820;48.738;9.092;2023-05-24T11:50:38;96645.44;;;15.35;100.00
23303;BME280;11820;48.738;9.092;2023-05-24T11:53:03;96645.84;;;15.57;100.00
23303;BME280;11820;48.738;9.092;2023-05-24T11:55:29;96633.69;;;15.87;100.00
23303;BME280;11820;48.738;9.092;2023-05-24T11:57:57;96632.22;;;16.62;100.00
23303;BME280;11820;48.738;9.092;2023-05-24T12:00:27;96623.41;;;16.75;100.00
23303;BME280;11820;48.738;9.092;2023-05-24T12:02:55;96626.50;;;16.54;100.00
23303;BME280;11820;48.738;9.092;2023-05-24T12:05:21;96626.84;;;16.57;100.00
23303;BME280;11820;48.738;9.092;2023-05-24T12:07:47;96633.13;;;16.97;100.00
23303;BME280;11820;48.738;9.092;2023-05-24T12:10:15;96623.66;;;17.37;100.00
23303;BME280;11820;48.738;9.092;2023-05-24T12:12:44;96624.56;;;16.49;100.00
23303;BME280;11820;48.738;9.092;2023-05-24T12:15:10;96627.34;;;16.36;100.00
23303;BME280;11820;48.738;9.092;2023-05-24T12:17:36;96633.63;;;16.76;100.00
23303;BME280;11820;48.738;9.092;2023-05-24T12:20:02;96617.88;;;16.94;100.00
23303;BME280;11820;48.738;9.092;2023-05-24T12:22:28;96619.97;;;17.27;98.70
23303;BME280;11820;48.738;9.092;2023-05-24T12:24:56;96622.75;;;17.66;93.88
23303;BME280;11820;48.738;9.092;2023-05-24T12:27:26;96620.50;;;17.70;95.98
23303;BME280;11820;48.738;9.092;2023-05-24T12:29:51;96628.09;;;17.48;96.27
23303;BME280;11820;48.738;9.092;2023-05-24T12:32:16;96625.41;;;17.02;98.93
23303;BME280;11820;48.738;9.092;2023-05-24T12:34:43;96620.16;;;16.91;97.53
23303;BME280;11820;48.738;9.092;2023-05-24T12:37:10;96620.66;;;16.70;96.99
23303;BME280;11820;48.738;9.092;2023-05-24T12:39:36;96623.31;;;17.34;95.89
23303;BME280;11820;48.738;9.092;2023-05-24T12:42:03;96614.53;;;17.28;95.15
23303;BME280;11820;48.738;9.092;2023-05-24T12:44:35;96613.66;;;17.34;94.16
23303;BME280;11820;48.738;9.092;2023-05-24T12:47:02;96607.88;;;17.55;92.37
23303;BME280;11820;48.738;9.092;2023-05-24T12:49:28;96613.59;;;17.11;91.10
23303;BME280;11820;48.738;9.092;2023-05-24T12:51:54;96604.38;;;17.09;92.12
23303;BME280;11820;48.738;9.092;2023-05-24T12:54:25;96600.69;;;17.51;91.96
23303;BME280;11820;48.738;9.092;2023-05-24T12:56:52;96597.03;;;17.86;91.25
23303;BME280;11820;48.738;9.092;2023-05-24T12:59:17;96598.97;;;17.91;90.72
23303;BME280;11820;48.738;9.092;2023-05-24T13:01:43;96600.69;;;17.74;83.82
23303;BME280;11820;48.738;9.092;2023-05-24T13:04:14;96600.25;;;17.65;86.13
23303;BME280;11820;48.738;9.092;2023-05-24T13:06:41;96603.41;;;17.56;87.50
23303;BME280;11820;48.738;9.092;2023-05-24T13:09:06;96602.22;;;18.09;87.44
23303;BME280;11820;48.738;9.092;2023-05-24T13:11:32;96598.44;;;17.43;86.46
23303;BME280;11820;48.738;9.092;2023-05-24T13:13:57;96600.22;;;17.88;86.53